createdAt,value
2022-09-28T00:01:22.586Z,83.10
2022-09-28T00:03:54.604Z,83.30
2022-09-28T00:06:24.636Z,83.50
2022-09-28T00:08:52.842Z,83.60
2022-09-28T00:11:21.643Z,83.90
2022-09-28T00:13:51.826Z,84.20
2022-09-28T00:16:21.618Z,84.40
2022-09-28T00:18:51.059Z,84.60
2022-09-28T00:21:24.206Z,84.70
2022-09-28T00:24:35.531Z,85.00
2022-09-28T00:27:03.988Z,85.10
2022-09-28T00:29:36.062Z,85.10
2022-09-28T00:32:10.341Z,85.20
2022-09-28T00:34:42.756Z,85.50
2022-09-28T00:37:10.647Z,85.70
2022-09-28T00:39:41.324Z,85.80
2022-09-28T00:42:16.388Z,86.10
2022-09-28T00:44:53.216Z,86.20
2022-09-28T00:47:43.095Z,86.20
2022-09-28T00:50:29.750Z,86.30
2022-09-28T00:53:04.079Z,86.50
2022-09-28T00:55:46.287Z,86.60
2022-09-28T00:58:19.235Z,86.70
2022-09-28T01:00:46.692Z,86.90
2022-09-28T01:03:14.332Z,87.00
2022-09-28T01:05:41.859Z,87.00
2022-09-28T01:08:11.257Z,87.30
2022-09-28T01:10:40.735Z,87.30
2022-09-28T01:13:08.173Z,87.40
2022-09-28T01:15:41.584Z,87.40
2022-09-28T01:18:22.234Z,87.10
2022-09-28T01:21:15.751Z,86.70
2022-09-28T01:24:05.066Z,86.50
2022-09-28T01:27:00.136Z,86.00
2022-09-28T01:29:36.677Z,85.90
2022-09-28T01:32:37.473Z,85.70
2022-09-28T01:35:17.360Z,86.10
2022-09-28T01:38:00.782Z,86.30
2022-09-28T01:40:30.146Z,86.20
2022-09-28T01:43:10.973Z,86.10
2022-09-28T01:45:55.107Z,86.70
2022-09-28T01:48:54.204Z,87.00
2022-09-28T01:51:46.992Z,87.00
2022-09-28T01:54:29.068Z,87.10
2022-09-28T01:57:18.127Z,87.30
2022-09-28T02:00:07.188Z,87.40
2022-09-28T02:02:56.153Z,87.60
2022-09-28T02:05:51.114Z,87.70
2022-09-28T02:08:35.152Z,88.00
2022-09-28T02:11:29.391Z,88.10
2022-09-28T02:14:03.843Z,88.30
2022-09-28T02:16:46.394Z,88.50
2022-09-28T02:19:19.970Z,89.30
2022-09-28T02:22:00.319Z,88.40
2022-09-28T02:24:49.116Z,88.50
2022-09-28T02:27:32.744Z,88.80
2022-09-28T02:30:00.686Z,89.00
2022-09-28T02:32:30.854Z,88.70
2022-09-28T02:34:59.672Z,88.90
2022-09-28T02:37:27.855Z,89.20
2022-09-28T02:39:55.536Z,89.30
2022-09-28T02:42:49.708Z,89.50
2022-09-28T02:45:38.715Z,89.40
2022-09-28T02:49:10.609Z,89.20
2022-09-28T02:52:01.094Z,89.20
2022-09-28T02:55:01.060Z,89.10
2022-09-28T02:57:41.630Z,89.10
2022-09-28T03:00:17.485Z,89.00
2022-09-28T03:02:53.844Z,88.80
2022-09-28T03:05:21.439Z,88.80
2022-09-28T03:08:06.403Z,88.80
2022-09-28T03:10:52.928Z,88.70
2022-09-28T03:13:20.946Z,88.70
2022-09-28T03:15:49.772Z,88.50
2022-09-28T03:18:18.456Z,88.50
2022-09-28T03:20:45.747Z,89.10
2022-09-28T03:23:24.488Z,88.40
2022-09-28T03:25:53.249Z,88.40
2022-09-28T03:28:21.416Z,88.50
2022-09-28T03:30:50.025Z,88.50
2022-09-28T03:33:20.020Z,89.30
2022-09-28T03:35:48.479Z,88.70
2022-09-28T03:38:20.506Z,88.90
2022-09-28T03:40:59.707Z,89.30
2022-09-28T03:43:31.083Z,89.40
2022-09-28T03:46:02.141Z,89.60
2022-09-28T03:48:34.153Z,89.60
2022-09-28T03:51:04.210Z,89.80
2022-09-28T03:53:33.360Z,89.70
2022-09-28T03:56:07.310Z,89.70
2022-09-28T03:58:34.840Z,89.60
2022-09-28T04:01:09.950Z,89.40
2022-09-28T04:03:40.270Z,89.50
2022-09-28T04:06:08.190Z,89.60
2022-09-28T04:08:36.062Z,89.50
2022-09-28T04:11:03.716Z,89.90
2022-09-28T04:13:31.656Z,89.20
2022-09-28T04:16:01.446Z,89.20
2022-09-28T04:18:32.911Z,89.00
2022-09-28T04:21:09.086Z,89.00
2022-09-28T04:23:58.093Z,89.30
2022-09-28T04:26:27.389Z,89.40
2022-09-28T04:29:13.252Z,89.50
2022-09-28T04:31:50.830Z,89.70
2022-09-28T04:34:21.923Z,90.00
2022-09-28T04:36:50.183Z,90.00
2022-09-28T04:39:19.495Z,90.10
2022-09-28T04:41:57.062Z,90.20
2022-09-28T04:44:24.524Z,90.20
2022-09-28T04:47:00.597Z,90.20
2022-09-28T04:49:30.163Z,90.10
2022-09-28T04:52:02.503Z,90.20
2022-09-28T04:54:29.901Z,90.20
2022-09-28T04:56:58.331Z,90.20
2022-09-28T04:59:26.142Z,90.30
2022-09-28T05:01:54.246Z,90.10
2022-09-28T05:04:44.604Z,90.10
2022-09-28T05:07:31.551Z,90.10
2022-09-28T05:10:01.844Z,90.10
2022-09-28T05:12:31.590Z,90.10
2022-09-28T05:15:00.589Z,90.10
2022-09-28T05:17:28.495Z,90.00
2022-09-28T05:20:09.947Z,90.10
2022-09-28T05:22:37.204Z,90.10
2022-09-28T05:25:06.247Z,90.30
2022-09-28T05:27:45.233Z,89.70
2022-09-28T05:30:29.870Z,89.80
2022-09-28T05:33:15.779Z,89.80
2022-09-28T05:35:53.353Z,89.70
2022-09-28T05:38:21.967Z,89.40
2022-09-28T05:40:49.416Z,89.10
2022-09-28T05:43:17.194Z,88.90
2022-09-28T05:45:44.787Z,88.80
2022-09-28T05:48:12.051Z,88.40
2022-09-28T05:50:39.591Z,88.30
2022-09-28T05:53:08.962Z,88.00
2022-09-28T05:55:37.901Z,87.70
2022-09-28T05:58:06.588Z,87.40
2022-09-28T06:00:34.695Z,87.20
2022-09-28T06:03:08.691Z,87.00
2022-09-28T06:05:37.768Z,86.40
2022-09-28T06:08:08.201Z,86.20
2022-09-28T06:10:35.776Z,86.20
2022-09-28T06:13:03.508Z,86.10
2022-09-28T06:15:32.563Z,86.10
2022-09-28T06:18:10.537Z,85.80
2022-09-28T06:20:58.113Z,85.60
2022-09-28T06:23:34.549Z,85.30
2022-09-28T06:26:02.041Z,84.70
2022-09-28T06:28:31.006Z,84.30
2022-09-28T06:31:00.888Z,84.30
2022-09-28T06:33:30.330Z,84.20
2022-09-28T06:35:59.856Z,84.00
2022-09-28T06:38:27.320Z,83.80
2022-09-28T06:40:56.511Z,83.90
2022-09-28T06:43:24.061Z,83.70
2022-09-28T06:46:27.252Z,83.50
2022-09-28T06:49:17.370Z,83.00
2022-09-28T06:52:12.664Z,83.10
2022-09-28T06:55:00.138Z,83.20
2022-09-28T06:57:39.285Z,83.00
2022-09-28T07:00:07.158Z,82.90
2022-09-28T07:02:34.665Z,82.70
2022-09-28T07:05:26.894Z,82.60
2022-09-28T07:08:16.195Z,82.50
2022-09-28T07:11:06.308Z,82.50
2022-09-28T07:13:51.670Z,82.40
2022-09-28T07:16:26.904Z,82.50
2022-09-28T07:18:55.615Z,82.50
2022-09-28T07:21:29.522Z,82.90
2022-09-28T07:23:57.908Z,83.40
2022-09-28T07:26:26.051Z,83.70
2022-09-28T07:29:02.520Z,84.20
2022-09-28T07:31:48.477Z,84.40
2022-09-28T07:34:41.605Z,84.80
2022-09-28T07:37:18.826Z,85.70
2022-09-28T07:40:05.216Z,86.20
2022-09-28T07:42:36.402Z,86.20
2022-09-28T07:45:04.235Z,86.20
2022-09-28T07:47:35.007Z,86.40
2022-09-28T07:50:21.475Z,86.90
2022-09-28T07:52:59.111Z,86.80
2022-09-28T07:55:32.176Z,87.10
2022-09-28T07:58:09.484Z,87.40
2022-09-28T08:00:55.498Z,88.20
2022-09-28T08:03:22.975Z,88.00
2022-09-28T08:05:50.273Z,87.70
2022-09-28T08:08:18.457Z,88.00
2022-09-28T08:10:47.417Z,88.20
2022-09-28T08:13:41.183Z,88.10
2022-09-28T08:16:22.612Z,88.20
2022-09-28T08:19:10.066Z,87.30
2022-09-28T08:21:46.427Z,86.70
2022-09-28T08:24:15.985Z,86.70
2022-09-28T08:26:44.469Z,85.20
2022-09-28T08:29:15.263Z,85.10
2022-09-28T08:31:51.452Z,84.40
2022-09-28T08:34:42.043Z,84.80
2022-09-28T08:37:20.339Z,84.40
2022-09-28T08:40:13.357Z,83.80
2022-09-28T08:43:01.211Z,84.00
2022-09-28T08:45:59.208Z,83.60
2022-09-28T08:49:30.897Z,82.20
2022-09-28T08:52:25.956Z,80.40
2022-09-28T08:55:31.526Z,80.70
2022-09-28T08:58:15.167Z,81.50
2022-09-28T09:00:47.769Z,80.90
2022-09-28T09:03:23.757Z,81.60
2022-09-28T09:06:26.128Z,82.10
2022-09-28T09:09:13.447Z,82.90
2022-09-28T09:11:58.816Z,83.00
2022-09-28T09:18:54.139Z,82.70
2022-09-28T09:21:51.723Z,82.80
2022-09-28T09:24:41.808Z,83.00
2022-09-28T09:27:17.753Z,82.90
2022-09-28T09:29:56.599Z,81.70
2022-09-28T09:32:47.197Z,81.10
2022-09-28T09:35:46.721Z,79.80
2022-09-28T09:39:08.816Z,78.70
2022-09-28T09:42:05.979Z,77.50
2022-09-28T09:45:09.512Z,77.10
2022-09-28T09:48:00.764Z,75.10
2022-09-28T09:50:39.532Z,74.10
2022-09-28T09:53:28.889Z,73.50
2022-09-28T09:56:07.620Z,71.90
2022-09-28T09:58:56.037Z,71.40
2022-09-28T10:01:39.270Z,70.40
2022-09-28T10:04:30.068Z,68.90
2022-09-28T10:07:06.620Z,66.90
2022-09-28T10:09:44.605Z,66.50
2022-09-28T10:12:38.363Z,65.30
2022-09-28T10:15:07.669Z,65.60
2022-09-28T10:17:46.939Z,65.90
2022-09-28T10:20:39.057Z,65.00
2022-09-28T10:23:25.591Z,64.70
2022-09-28T10:26:02.228Z,63.50
2022-09-28T10:28:48.951Z,63.10
2022-09-28T10:31:42.443Z,62.90
2022-09-28T10:34:28.240Z,62.60
2022-09-28T10:37:04.476Z,61.80
2022-09-28T10:39:55.001Z,63.10
2022-09-28T10:42:31.315Z,62.70
2022-09-28T10:45:22.548Z,61.10
2022-09-28T10:47:51.366Z,61.70
2022-09-28T10:50:28.651Z,61.00
2022-09-28T10:53:16.040Z,60.60
2022-09-28T10:56:28.394Z,61.00
2022-09-28T10:59:42.994Z,61.90
2022-09-28T11:02:26.055Z,62.40
2022-09-28T11:04:59.872Z,62.40
2022-09-28T11:07:33.541Z,62.10
2022-09-28T11:10:02.148Z,61.80
2022-09-28T11:12:44.056Z,61.70
2022-09-28T11:15:20.296Z,62.60
2022-09-28T11:17:50.400Z,62.40
2022-09-28T11:20:28.312Z,62.90
2022-09-28T11:23:20.552Z,62.20
2022-09-28T11:26:04.471Z,62.10
2022-09-28T11:28:43.068Z,62.40
2022-09-28T11:31:27.798Z,62.40
2022-09-28T11:34:24.909Z,62.60
2022-09-28T11:37:42.809Z,62.20
2022-09-28T11:40:42.266Z,62.90
2022-09-28T11:43:33.810Z,63.40
2022-09-28T11:46:08.846Z,62.90
2022-09-28T11:49:01.541Z,63.20
2022-09-28T11:51:34.691Z,63.50
2022-09-28T11:54:14.440Z,62.70
2022-09-28T11:56:47.552Z,62.80
2022-09-28T11:59:40.952Z,62.20
2022-09-28T12:02:19.403Z,61.80
2022-09-28T12:05:08.031Z,61.40
2022-09-28T12:07:43.263Z,61.70
2022-09-28T12:10:48.655Z,61.20
2022-09-28T12:13:25.320Z,60.30
2022-09-28T12:16:27.615Z,60.90
2022-09-28T12:19:05.944Z,60.70
2022-09-28T12:21:56.116Z,60.60
2022-09-28T12:24:33.126Z,60.70
2022-09-28T12:27:15.427Z,60.70
2022-09-28T12:29:55.065Z,61.00
2022-09-28T12:32:45.765Z,61.40
2022-09-28T12:35:20.337Z,61.00
2022-09-28T12:38:28.655Z,60.50
2022-09-28T12:41:54.558Z,60.10
2022-09-28T12:45:00.144Z,60.50
2022-09-28T12:48:00.126Z,60.30
2022-09-28T12:50:59.272Z,60.40
2022-09-28T12:53:53.791Z,61.00
2022-09-28T12:56:39.106Z,60.50
2022-09-28T12:59:27.401Z,60.70
2022-09-28T13:02:31.743Z,61.00
2022-09-28T13:05:07.762Z,61.00
2022-09-28T13:07:58.066Z,61.00
2022-09-28T13:11:07.708Z,61.10
2022-09-28T13:13:38.125Z,60.80
2022-09-28T13:16:31.618Z,61.20
2022-09-28T13:19:15.077Z,60.90
2022-09-28T13:22:16.121Z,60.90
2022-09-28T13:24:45.469Z,61.10
2022-09-28T13:27:24.542Z,60.80
2022-09-28T13:29:54.950Z,60.10
2022-09-28T13:32:26.424Z,61.00
2022-09-28T13:34:54.744Z,60.40
2022-09-28T13:37:25.506Z,60.40
2022-09-28T13:40:06.214Z,60.30
2022-09-28T13:42:59.015Z,60.10
2022-09-28T13:45:53.607Z,60.50
2022-09-28T13:48:36.788Z,60.80
2022-09-28T13:51:24.509Z,61.00
2022-09-28T13:54:22.067Z,61.10
2022-09-28T13:57:06.086Z,61.10
2022-09-28T14:00:00.037Z,61.80
2022-09-28T14:02:54.261Z,61.90
2022-09-28T14:05:41.187Z,62.50
2022-09-28T14:08:09.084Z,62.50
2022-09-28T14:10:52.403Z,62.70
2022-09-28T14:13:45.284Z,63.00
2022-09-28T14:16:24.604Z,63.10
2022-09-28T14:19:21.675Z,63.20
2022-09-28T14:22:17.423Z,63.20
2022-09-28T14:25:24.145Z,63.00
2022-09-28T14:28:35.169Z,63.60
2022-09-28T14:31:14.240Z,63.50
2022-09-28T14:34:02.743Z,63.70
2022-09-28T14:37:05.931Z,63.90
2022-09-28T14:39:55.664Z,63.70
2022-09-28T14:42:25.980Z,63.90
2022-09-28T14:45:08.620Z,63.30
2022-09-28T14:47:36.182Z,63.60
2022-09-28T14:50:29.796Z,64.10
2022-09-28T14:53:26.351Z,63.90
2022-09-28T14:56:07.694Z,64.60
2022-09-28T14:58:37.444Z,65.10
2022-09-28T15:01:12.715Z,65.60
2022-09-28T15:03:44.144Z,65.30
2022-09-28T15:06:16.326Z,65.20
2022-09-28T15:08:44.199Z,65.20
2022-09-28T15:11:24.293Z,65.60
2022-09-28T15:14:06.333Z,65.70
2022-09-28T15:16:37.255Z,66.10
2022-09-28T15:19:35.353Z,66.60
2022-09-28T15:22:04.586Z,67.30
2022-09-28T15:24:34.224Z,67.00
2022-09-28T15:27:19.508Z,67.40
2022-09-28T15:29:58.539Z,67.00
2022-09-28T15:32:28.819Z,65.80
2022-09-28T15:34:57.063Z,65.40
2022-09-28T15:37:39.646Z,65.00
2022-09-28T15:40:17.815Z,64.50
2022-09-28T15:42:46.676Z,63.50
2022-09-28T15:45:14.222Z,63.90
2022-09-28T15:47:44.871Z,63.00
2022-09-28T15:50:28.195Z,61.60
2022-09-28T15:53:05.436Z,60.10
2022-09-28T15:55:42.672Z,59.10
2022-09-28T15:58:19.652Z,59.10
2022-09-28T16:00:50.209Z,58.60
2022-09-28T16:03:17.391Z,58.80
2022-09-28T16:06:11.154Z,59.00
2022-09-28T16:08:48.907Z,59.50
2022-09-28T16:11:31.550Z,59.60
2022-09-28T16:14:17.377Z,59.70
2022-09-28T16:16:48.308Z,60.00
2022-09-28T16:19:30.995Z,60.80
2022-09-28T16:22:01.968Z,61.20
2022-09-28T16:24:36.210Z,61.70
2022-09-28T16:27:28.020Z,62.10
2022-09-28T16:30:20.065Z,62.50
2022-09-28T16:33:29.911Z,63.10
2022-09-28T16:36:02.353Z,64.00
2022-09-28T16:38:30.856Z,64.90
2022-09-28T16:41:02.007Z,66.10
2022-09-28T16:43:34.950Z,66.60
2022-09-28T16:46:12.933Z,66.70
2022-09-28T16:48:51.064Z,66.10
2022-09-28T16:51:20.134Z,65.60
2022-09-28T16:54:05.938Z,65.20
2022-09-28T16:56:34.954Z,65.20
2022-09-28T16:59:02.951Z,65.00
2022-09-28T17:01:31.300Z,65.10
2022-09-28T17:03:58.642Z,65.30
2022-09-28T17:06:26.882Z,65.50
2022-09-28T17:08:58.639Z,66.40
2022-09-28T17:11:26.097Z,65.80
2022-09-28T17:13:58.975Z,65.90
2022-09-28T17:16:49.826Z,66.30
2022-09-28T17:19:24.434Z,66.50
2022-09-28T17:21:52.650Z,66.70
2022-09-28T17:24:20.821Z,67.00
2022-09-28T17:26:50.795Z,67.30
2022-09-28T17:29:19.110Z,67.20
2022-09-28T17:31:47.427Z,67.40
2022-09-28T17:34:16.150Z,67.30
2022-09-28T17:36:44.749Z,67.60
2022-09-28T17:39:21.236Z,67.70
2022-09-28T17:41:48.507Z,67.80
2022-09-28T17:44:16.272Z,67.90
2022-09-28T17:46:48.535Z,68.20
2022-09-28T17:49:16.942Z,68.40
2022-09-28T17:51:44.322Z,68.30
2022-09-28T17:54:13.531Z,68.40
2022-09-28T17:56:42.359Z,68.00
2022-09-28T17:59:14.316Z,68.70
2022-09-28T18:01:41.630Z,68.90
2022-09-28T18:04:23.123Z,69.00
2022-09-28T18:06:55.172Z,69.30
2022-09-28T18:09:25.348Z,69.40
2022-09-28T18:12:00.191Z,69.70
2022-09-28T18:14:28.362Z,70.00
2022-09-28T18:16:55.989Z,70.80
2022-09-28T18:19:23.213Z,70.10
2022-09-28T18:21:50.414Z,70.30
2022-09-28T18:24:17.811Z,70.20
2022-09-28T18:26:45.021Z,70.30
2022-09-28T18:29:12.221Z,70.50
2022-09-28T18:31:39.442Z,70.70
2022-09-28T18:34:06.741Z,70.90
2022-09-28T18:36:35.850Z,71.20
2022-09-28T18:39:03.416Z,71.30
2022-09-28T18:41:30.757Z,71.50
2022-09-28T18:44:00.783Z,71.70
2022-09-28T18:46:29.856Z,71.80
2022-09-28T18:48:57.368Z,71.80
2022-09-28T18:51:24.648Z,72.10
2022-09-28T18:53:52.251Z,72.10
2022-09-28T18:56:20.999Z,72.10
2022-09-28T18:58:51.543Z,72.20
2022-09-28T19:01:36.286Z,72.40
2022-09-28T19:04:07.066Z,72.50
2022-09-28T19:06:36.858Z,72.50
2022-09-28T19:09:04.393Z,72.80
2022-09-28T19:11:31.751Z,72.90
2022-09-28T19:13:59.366Z,72.90
2022-09-28T19:16:30.970Z,72.90
2022-09-28T19:19:02.683Z,73.00
2022-09-28T19:21:30.300Z,72.90
2022-09-28T19:24:00.863Z,72.80
2022-09-28T19:26:29.197Z,72.90
2022-09-28T19:28:57.383Z,73.10
2022-09-28T19:31:25.696Z,73.20
2022-09-28T19:33:52.916Z,73.20
2022-09-28T19:36:23.735Z,73.60
2022-09-28T19:38:53.222Z,73.90
2022-09-28T19:41:43.969Z,74.10
2022-09-28T19:44:19.737Z,74.30
2022-09-28T19:46:47.134Z,74.60
2022-09-28T19:49:22.542Z,74.90
2022-09-28T19:52:11.484Z,75.30
2022-09-28T19:54:39.624Z,75.60
2022-09-28T19:57:09.674Z,76.20
2022-09-28T19:59:37.766Z,76.60
2022-09-28T20:02:10.152Z,76.70
2022-09-28T20:04:37.524Z,76.90
2022-09-28T20:07:05.400Z,76.80
2022-09-28T20:09:32.935Z,77.00
2022-09-28T20:12:00.307Z,77.30
2022-09-28T20:14:32.902Z,77.30
2022-09-28T20:17:01.459Z,77.10
2022-09-28T20:19:28.672Z,77.00
2022-09-28T20:21:59.404Z,77.10
2022-09-28T20:24:28.721Z,76.60
2022-09-28T20:26:56.191Z,76.30
2022-09-28T20:29:24.288Z,76.10
2022-09-28T20:31:52.031Z,76.00
2022-09-28T20:34:19.401Z,75.80
2022-09-28T20:36:46.775Z,75.50
2022-09-28T20:39:14.308Z,75.40
2022-09-28T20:41:42.185Z,75.10
2022-09-28T20:44:09.838Z,75.20
2022-09-28T20:46:38.166Z,75.30
2022-09-28T20:49:07.030Z,75.30
2022-09-28T20:51:34.434Z,75.10
2022-09-28T20:54:01.785Z,75.00
2022-09-28T20:56:31.693Z,75.20
2022-09-28T20:58:58.907Z,75.00
2022-09-28T21:01:28.627Z,74.70
2022-09-28T21:04:00.903Z,74.60
2022-09-28T21:06:31.248Z,74.60
2022-09-28T21:08:58.895Z,74.70
2022-09-28T21:11:28.501Z,74.80
2022-09-28T21:13:58.531Z,75.10
2022-09-28T21:16:27.933Z,75.20
2022-09-28T21:18:55.687Z,75.20
2022-09-28T21:21:24.328Z,75.30
2022-09-28T21:23:55.999Z,75.50
2022-09-28T21:26:28.823Z,75.50
2022-09-28T21:29:00.387Z,75.40
2022-09-28T21:31:32.580Z,75.60
2022-09-28T21:34:00.539Z,75.70
2022-09-28T21:36:27.773Z,75.90
2022-09-28T21:38:55.528Z,76.10
2022-09-28T21:41:23.501Z,76.40
2022-09-28T21:43:51.085Z,76.60
2022-09-28T21:46:18.925Z,76.90
2022-09-28T21:48:46.330Z,77.20
2022-09-28T21:51:15.104Z,77.50
2022-09-28T21:53:42.919Z,77.80
2022-09-28T21:56:12.730Z,78.00
2022-09-28T21:58:40.329Z,78.20
2022-09-28T22:01:20.170Z,78.40
2022-09-28T22:03:50.456Z,78.50
2022-09-28T22:06:19.994Z,78.70
2022-09-28T22:08:48.526Z,79.00
2022-09-28T22:11:21.957Z,79.60
2022-09-28T22:13:51.751Z,80.20
2022-09-28T22:16:21.882Z,80.90
2022-09-28T22:18:49.743Z,81.40
2022-09-28T22:21:22.973Z,81.70
2022-09-28T22:23:50.907Z,82.20
2022-09-28T22:26:21.872Z,82.70
2022-09-28T22:28:51.679Z,83.30
2022-09-28T22:31:22.249Z,83.40
2022-09-28T22:33:49.736Z,83.90
2022-09-28T22:36:17.147Z,84.70
2022-09-28T22:38:44.976Z,85.10
2022-09-28T22:41:14.516Z,86.20
2022-09-28T22:43:43.003Z,86.60
2022-09-28T22:46:12.501Z,87.60
2022-09-28T22:48:40.215Z,88.40
2022-09-28T22:51:07.572Z,88.90
2022-09-28T22:53:35.589Z,89.50
2022-09-28T22:56:05.522Z,89.90
2022-09-28T22:58:34.255Z,90.00
2022-09-28T23:01:12.742Z,90.10
2022-09-28T23:03:42.102Z,90.40
2022-09-28T23:06:10.871Z,90.50
2022-09-28T23:08:38.759Z,90.70
2022-09-28T23:11:07.052Z,90.90
2022-09-28T23:13:35.172Z,91.00
2022-09-28T23:16:05.816Z,91.00
2022-09-28T23:18:36.486Z,91.20
2022-09-28T23:21:06.832Z,91.40
2022-09-28T23:23:34.342Z,91.60
2022-09-28T23:26:09.636Z,91.70
2022-09-28T23:28:36.847Z,91.80
2022-09-28T23:31:11.231Z,91.90
2022-09-28T23:33:38.901Z,92.00
2022-09-28T23:36:06.849Z,92.10
2022-09-28T23:38:34.479Z,92.20
2022-09-28T23:41:01.732Z,92.30
2022-09-28T23:43:29.072Z,92.30
2022-09-28T23:45:56.294Z,92.40
2022-09-28T23:48:23.705Z,92.40
2022-09-28T23:50:51.335Z,92.50
2022-09-28T23:53:18.620Z,92.60
2022-09-28T23:55:46.458Z,92.80
2022-09-28T23:58:13.700Z,92.90
